Time;durP1;ratioP1;P1;durP2;ratioP2;P2;SDS_P1;SDS_P2;PMS_P1;PMS_P2;Temp;Humidity;BMP_temperature;BMP_pressure;BME280_temperature;BME280_humidity;BME280_pressure;Samples;Min_cycle;Max_cycle;Signal;HPM_P1;HPM_P2
2022/04/08 00:01:41;;;;;;;7.07;1.75;;;5.60;99.90;;;;;;4977870;28;93399;-32
2022/04/08 00:04:07;;;;;;;8.23;1.95;;;5.60;99.90;;;;;;4978534;28;94763;-36
2022/04/08 00:06:33;;;;;;;7.45;2.35;;;5.50;99.90;;;;;;4978398;28;95756;-35
2022/04/08 00:08:58;;;;;;;6.32;1.80;;;5.50;99.90;;;;;;4978477;28;93453;-33
2022/04/08 00:11:25;;;;;;;8.07;2.30;;;5.50;99.90;;;;;;4978834;28;92100;-31
2022/04/08 00:13:52;;;;;;;6.22;2.05;;;5.60;99.90;;;;;;4978554;28;94525;-34
2022/04/08 00:16:19;;;;;;;8.43;2.28;;;5.60;99.90;;;;;;4978271;28;94955;-34
2022/04/08 00:18:45;;;;;;;9.30;2.53;;;5.60;99.90;;;;;;4978568;28;95657;-30
2022/04/08 00:21:11;;;;;;;5.85;2.53;;;5.60;99.90;;;;;;4978253;28;94780;-33
2022/04/08 00:26:33;;;;;;;7.15;2.05;;;5.60;99.90;;;;;;4937046;28;94681;-34
2022/04/08 00:28:58;;;;;;;10.32;2.78;;;5.50;99.90;;;;;;4938903;28;92377;-34
2022/04/08 00:31:24;;;;;;;9.27;2.60;;;5.50;99.90;;;;;;4938972;28;94459;-31
2022/04/08 00:33:49;;;;;;;8.07;2.42;;;5.60;99.90;;;;;;4938116;28;94906;-33
2022/04/08 00:36:15;;;;;;;10.05;2.83;;;5.50;99.90;;;;;;4939274;28;94547;-36
2022/04/08 00:38:40;;;;;;;5.03;2.03;;;5.50;99.90;;;;;;4939169;28;92694;-35
2022/04/08 00:41:06;;;;;;;8.77;2.40;;;5.50;99.90;;;;;;4937785;28;93263;-32
2022/04/08 00:43:36;;;;;;;8.80;2.00;;;5.60;99.90;;;;;;4938526;28;95142;-33
2022/04/08 00:46:07;;;;;;;8.32;2.38;;;5.50;99.90;;;;;;4938785;28;96063;-34
2022/04/08 00:48:33;;;;;;;12.70;2.95;;;5.50;99.90;;;;;;4939039;28;92839;-35
2022/04/08 00:51:00;;;;;;;6.32;2.33;;;5.50;99.90;;;;;;4938391;28;93728;-33
2022/04/08 00:53:27;;;;;;;4.75;1.70;;;5.50;99.90;;;;;;4938157;28;94572;-36
2022/04/08 00:55:53;;;;;;;9.65;2.38;;;5.50;99.90;;;;;;4937876;28;94620;-36
2022/04/08 00:58:19;;;;;;;10.50;2.92;;;5.50;99.90;;;;;;4937972;28;93920;-32
2022/04/08 01:00:44;;;;;;;5.90;2.03;;;5.50;99.90;;;;;;4938454;28;91488;-32
2022/04/08 01:03:10;;;;;;;4.93;2.70;;;5.50;99.90;;;;;;4938133;28;95119;-33
2022/04/08 01:05:36;;;;;;;9.70;2.50;;;5.50;99.90;;;;;;4937951;28;93203;-32
2022/04/08 01:08:03;;;;;;;9.43;2.08;;;5.50;99.90;;;;;;4938249;28;94543;-34
2022/04/08 01:10:29;;;;;;;2.83;1.55;;;5.50;99.90;;;;;;4938236;28;93369;-32
2022/04/08 01:12:54;;;;;;;2.97;1.70;;;5.40;99.90;;;;;;4937916;28;94648;-36
2022/04/08 01:15:22;;;;;;;3.92;1.50;;;5.50;99.90;;;;;;4938131;28;93865;-33
2022/04/08 01:17:49;;;;;;;5.07;1.33;;;5.40;99.90;;;;;;4938957;28;94203;-31
2022/04/08 01:20:15;;;;;;;4.65;1.20;;;5.20;99.90;;;;;;4938088;28;94642;-32
2022/04/08 01:22:41;;;;;;;3.55;1.40;;;5.10;99.90;;;;;;4937568;28;94682;-35
2022/04/08 01:25:09;;;;;;;1.13;0.93;;;5.00;99.90;;;;;;4928372;28;93143;-33
2022/04/08 01:27:35;;;;;;;4.40;1.27;;;4.90;99.90;;;;;;4918819;28;94270;-35
2022/04/08 01:30:02;;;;;;;2.58;1.38;;;4.90;99.90;;;;;;4918143;28;93103;-34
2022/04/08 01:32:27;;;;;;;1.23;1.08;;;4.90;99.90;;;;;;4918439;28;95729;-34
2022/04/08 01:34:53;;;;;;;4.07;1.77;;;4.90;99.90;;;;;;4917945;28;95478;-36
2022/04/08 01:37:19;;;;;;;5.32;1.77;;;4.70;99.90;;;;;;4918913;28;93417;-33
2022/04/08 01:39:45;;;;;;;4.20;1.75;;;4.80;99.90;;;;;;4900514;28;93838;-34
2022/04/08 01:42:11;;;;;;;2.20;1.40;;;4.80;99.90;;;;;;4917343;28;94837;-36
2022/04/08 01:44:37;;;;;;;7.80;1.73;;;4.70;99.90;;;;;;4918316;28;94612;-34
2022/04/08 01:47:04;;;;;;;2.10;0.82;;;4.70;99.90;;;;;;4918808;28;94273;-34
2022/04/08 01:49:30;;;;;;;2.15;1.20;;;4.70;99.90;;;;;;4918745;28;91812;-32
2022/04/08 01:51:56;;;;;;;3.55;1.27;;;4.80;99.90;;;;;;4917863;28;94689;-33
2022/04/08 01:54:21;;;;;;;4.18;1.15;;;4.60;99.90;;;;;;4917696;28;94256;-34
2022/04/08 01:56:47;;;;;;;2.05;1.63;;;4.50;99.90;;;;;;4917939;28;95576;-35
2022/04/08 01:59:13;;;;;;;3.67;1.50;;;4.50;99.90;;;;;;4918003;28;93076;-35
2022/04/08 02:01:39;;;;;;;3.08;2.05;;;4.40;99.90;;;;;;4918024;28;94734;-35
2022/04/08 02:04:05;;;;;;;1.98;1.13;;;4.40;99.90;;;;;;4916828;28;94365;-33
2022/04/08 02:06:31;;;;;;;7.70;1.50;;;4.30;99.90;;;;;;4918310;28;92149;-32
2022/04/08 02:08:57;;;;;;;5.10;1.75;;;4.30;99.90;;;;;;4917292;28;93209;-37
2022/04/08 02:11:23;;;;;;;2.35;1.42;;;4.30;99.90;;;;;;4917642;28;94645;-33
2022/04/08 02:13:49;;;;;;;1.77;1.48;;;4.30;99.90;;;;;;4917808;28;94200;-36
2022/04/08 02:16:15;;;;;;;5.75;1.42;;;4.20;99.90;;;;;;4918933;28;94741;-32
2022/04/08 02:18:42;;;;;;;4.30;1.55;;;4.10;99.90;;;;;;4917450;28;93024;-31
2022/04/08 02:21:11;;;;;;;4.28;1.40;;;4.20;99.90;;;;;;4916933;28;95451;-32
2022/04/08 02:23:37;;;;;;;4.07;1.75;;;4.10;99.90;;;;;;4918098;28;95451;-33
2022/04/08 02:26:06;;;;;;;6.75;1.92;;;4.00;99.90;;;;;;4917832;28;94046;-33
2022/04/08 02:28:35;;;;;;;7.75;2.53;;;4.00;99.90;;;;;;4918322;28;94504;-33
2022/04/08 02:31:00;;;;;;;5.60;2.03;;;3.90;99.90;;;;;;4917130;28;93938;-36
2022/04/08 02:33:26;;;;;;;13.13;1.98;;;3.80;99.90;;;;;;4917627;28;94980;-34
2022/04/08 02:35:52;;;;;;;3.70;1.85;;;3.80;99.90;;;;;;4917560;28;94617;-33
2022/04/08 02:38:18;;;;;;;5.72;1.80;;;3.70;99.90;;;;;;4918251;28;93633;-33
2022/04/08 02:40:43;;;;;;;6.28;2.33;;;3.70;99.90;;;;;;4917744;28;97432;-33
2022/04/08 02:43:09;;;;;;;9.05;2.35;;;3.70;99.90;;;;;;4916729;28;94350;-36
2022/04/08 02:45:34;;;;;;;4.68;2.13;;;3.60;99.90;;;;;;4917086;28;94196;-36
2022/04/08 02:48:00;;;;;;;2.58;1.40;;;3.60;99.90;;;;;;4917633;28;94692;-32
2022/04/08 02:50:26;;;;;;;5.38;1.83;;;3.50;99.90;;;;;;4917659;28;95676;-31
2022/04/08 02:52:51;;;;;;;6.93;2.75;;;3.60;99.90;;;;;;4917901;28;94341;-33
2022/04/08 02:55:17;;;;;;;6.20;2.55;;;3.50;99.90;;;;;;4917382;28;93160;-35
2022/04/08 02:57:47;;;;;;;4.30;2.03;;;3.50;99.90;;;;;;4917186;28;92182;-34
2022/04/08 03:00:18;;;;;;;6.88;2.38;;;3.50;99.90;;;;;;4917958;28;94778;-35
2022/04/08 03:02:48;;;;;;;4.15;2.63;;;3.50;99.90;;;;;;4917822;28;95011;-37
2022/04/08 03:05:14;;;;;;;5.85;2.00;;;3.50;99.90;;;;;;4918187;28;94075;-35
2022/04/08 03:07:40;;;;;;;6.00;2.67;;;3.60;99.90;;;;;;4917422;28;92132;-30
2022/04/08 03:10:07;;;;;;;3.00;2.08;;;3.70;99.90;;;;;;4916259;28;95792;-30
2022/04/08 03:12:34;;;;;;;10.68;2.05;;;3.70;99.90;;;;;;4917078;28;96037;-34
2022/04/08 03:15:00;;;;;;;4.15;2.30;;;3.70;99.90;;;;;;4918551;28;92541;-33
2022/04/08 03:17:26;;;;;;;18.60;2.90;;;3.70;99.90;;;;;;4917388;28;93506;-34
2022/04/08 03:19:52;;;;;;;13.85;2.67;;;3.80;99.90;;;;;;4916996;28;95205;-32
2022/04/08 03:22:20;;;;;;;10.63;2.30;;;3.80;99.90;;;;;;4919550;28;94790;-31
2022/04/08 03:24:50;;;;;;;6.93;2.47;;;3.80;99.90;;;;;;4919990;28;93329;-35
2022/04/08 03:27:15;;;;;;;11.98;2.75;;;3.80;99.90;;;;;;4903664;28;94219;-33
2022/04/08 03:29:42;;;;;;;9.43;2.53;;;3.80;99.90;;;;;;4919965;28;95013;-36
2022/04/08 03:32:09;;;;;;;9.15;2.38;;;3.80;99.90;;;;;;4920213;28;94531;-33
2022/04/08 03:34:34;;;;;;;10.15;2.92;;;3.70;99.90;;;;;;4919452;28;94056;-37
2022/04/08 03:37:00;;;;;;;11.05;2.50;;;3.70;99.90;;;;;;4920740;28;95211;-32
2022/04/08 03:39:26;;;;;;;7.85;2.00;;;3.70;99.90;;;;;;4918537;28;94447;-34
2022/04/08 03:41:53;;;;;;;8.38;2.45;;;3.70;99.90;;;;;;4919772;28;94503;-36
2022/04/08 03:44:19;;;;;;;8.25;2.58;;;3.60;99.90;;;;;;4920692;28;94394;-36
2022/04/08 03:46:46;;;;;;;11.35;2.45;;;3.60;99.90;;;;;;4919171;28;92925;-36
2022/04/08 03:49:14;;;;;;;9.32;3.17;;;3.50;99.90;;;;;;4919507;28;94803;-31
2022/04/08 03:51:43;;;;;;;10.57;1.80;;;3.50;99.90;;;;;;4920835;28;93221;-36
2022/04/08 03:54:09;;;;;;;11.07;1.92;;;3.40;99.90;;;;;;4920718;28;92571;-37
2022/04/08 03:56:35;;;;;;;4.20;2.05;;;3.30;99.90;;;;;;4919237;28;93869;-35
2022/04/08 03:59:01;;;;;;;6.45;2.10;;;3.30;99.90;;;;;;4918890;28;95764;-34
2022/04/08 04:01:27;;;;;;;9.10;2.85;;;3.40;99.90;;;;;;4919892;28;94582;-32
2022/04/08 04:03:52;;;;;;;10.18;2.88;;;3.40;99.90;;;;;;4919575;28;92842;-34
2022/04/08 04:06:18;;;;;;;6.15;2.78;;;3.40;99.90;;;;;;4920686;28;94616;-31
2022/04/08 04:08:44;;;;;;;5.07;2.47;;;3.60;99.90;;;;;;4919255;28;94467;-32
2022/04/08 04:11:14;;;;;;;7.43;2.85;;;3.70;99.90;;;;;;4919186;28;95077;-34
2022/04/08 04:13:40;;;;;;;8.63;2.42;;;3.70;99.90;;;;;;4919800;28;93763;-32
2022/04/08 04:16:06;;;;;;;16.30;2.97;;;3.70;99.90;;;;;;4903405;28;93692;-33
2022/04/08 04:18:32;;;;;;;7.85;2.90;;;3.80;99.90;;;;;;4919701;28;94666;-35
2022/04/08 04:20:57;;;;;;;7.00;2.45;;;3.80;99.90;;;;;;4918460;28;94894;-36
2022/04/08 04:23:23;;;;;;;6.88;2.92;;;3.80;99.90;;;;;;4919447;28;94429;-34
2022/04/08 04:25:48;;;;;;;12.05;3.25;;;3.80;99.90;;;;;;4918947;28;94117;-37
2022/04/08 04:28:15;;;;;;;4.28;2.00;;;3.80;99.90;;;;;;4919550;28;97308;-33
2022/04/08 04:30:41;;;;;;;10.57;2.85;;;3.90;99.90;;;;;;4919080;28;94724;-34
2022/04/08 04:33:07;;;;;;;5.75;1.98;;;3.80;99.90;;;;;;4919563;28;93112;-33
2022/04/08 04:35:34;;;;;;;4.30;2.08;;;3.80;99.90;;;;;;4919586;28;93483;-34
2022/04/08 04:38:00;;;;;;;6.85;2.58;;;3.80;99.90;;;;;;4918860;28;95072;-35
2022/04/08 04:40:26;;;;;;;5.97;1.70;;;3.80;99.90;;;;;;4919762;28;94270;-33
2022/04/08 04:42:51;;;;;;;7.47;2.72;;;3.70;99.90;;;;;;4919093;28;92998;-33
2022/04/08 04:45:18;;;;;;;8.10;2.88;;;3.70;99.90;;;;;;4918885;28;93488;-35
2022/04/08 04:47:44;;;;;;;8.27;2.30;;;3.60;99.90;;;;;;4918169;28;94968;-35
2022/04/08 04:50:10;;;;;;;5.10;2.53;;;3.50;99.90;;;;;;4918602;28;97026;-33
2022/04/08 04:52:36;;;;;;;6.53;2.35;;;3.50;99.90;;;;;;4918979;28;93840;-35
2022/04/08 04:55:03;;;;;;;2.50;2.05;;;3.40;99.90;;;;;;4920251;28;92128;-31
2022/04/08 04:57:29;;;;;;;6.95;2.65;;;3.40;99.90;;;;;;4918522;28;95422;-35
2022/04/08 04:59:54;;;;;;;2.70;1.85;;;3.30;99.90;;;;;;4918870;28;94074;-33
2022/04/08 05:02:20;;;;;;;4.43;1.98;;;3.30;99.90;;;;;;4919092;28;93221;-33
2022/04/08 05:04:45;;;;;;;5.50;2.17;;;3.20;99.90;;;;;;4919004;28;92457;-34
2022/04/08 05:07:11;;;;;;;7.25;2.35;;;3.20;99.90;;;;;;4919392;28;96825;-32
2022/04/08 05:09:40;;;;;;;10.15;2.65;;;3.20;99.90;;;;;;4917969;28;94696;-33
2022/04/08 05:12:07;;;;;;;3.65;1.90;;;3.10;99.90;;;;;;4918048;28;94143;-34
2022/04/08 05:14:33;;;;;;;4.75;1.58;;;3.10;99.90;;;;;;4919010;28;94026;-36
2022/04/08 05:16:58;;;;;;;5.03;3.13;;;3.10;99.90;;;;;;4918034;28;94867;-36
2022/04/08 05:19:24;;;;;;;5.03;2.30;;;3.20;99.90;;;;;;4918878;28;94392;-35
2022/04/08 05:21:52;;;;;;;6.65;2.25;;;3.10;99.90;;;;;;4918393;28;92782;-33
2022/04/08 05:24:18;;;;;;;5.78;2.20;;;3.10;99.90;;;;;;4917503;28;94262;-32
2022/04/08 05:26:44;;;;;;;5.82;2.13;;;3.20;99.90;;;;;;4918607;28;94934;-33
2022/04/08 05:29:09;;;;;;;6.50;2.05;;;3.20;99.90;;;;;;4918607;28;94648;-32
2022/04/08 05:31:35;;;;;;;4.78;2.10;;;3.20;99.90;;;;;;4918176;28;93016;-32
2022/04/08 05:34:01;;;;;;;4.75;2.40;;;3.20;99.90;;;;;;4918501;28;93600;-36
2022/04/08 05:36:26;;;;;;;5.03;2.05;;;3.40;99.90;;;;;;4915860;28;95399;-33
2022/04/08 05:38:52;;;;;;;4.07;2.22;;;3.50;99.90;;;;;;4917804;28;95200;-32
2022/04/08 05:41:17;;;;;;;7.00;2.28;;;3.60;99.90;;;;;;4919006;28;92234;-33
2022/04/08 05:43:44;;;;;;;9.32;2.42;;;3.70;99.90;;;;;;4917436;28;93646;-31
2022/04/08 05:46:14;;;;;;;5.10;2.20;;;3.80;99.90;;;;;;4918303;28;95420;-35
2022/04/08 05:48:40;;;;;;;6.00;2.35;;;3.80;99.90;;;;;;4917965;28;94086;-33
2022/04/08 05:51:07;;;;;;;9.45;2.53;;;3.90;99.90;;;;;;4918297;28;93609;-36
2022/04/08 05:53:32;;;;;;;6.10;2.22;;;3.90;99.90;;;;;;4918754;28;93890;-32
2022/04/08 05:55:59;;;;;;;4.68;2.83;;;4.00;99.90;;;;;;4918454;28;94476;-34
2022/04/08 05:58:25;;;;;;;2.63;2.28;;;4.10;99.90;;;;;;4917718;28;94288;-34
2022/04/08 06:00:51;;;;;;;9.85;2.70;;;4.10;99.90;;;;;;4918361;28;94115;-33
2022/04/08 06:03:17;;;;;;;2.53;2.30;;;4.20;99.90;;;;;;4917755;28;93331;-33
2022/04/08 06:05:42;;;;;;;7.03;2.85;;;4.30;99.90;;;;;;4917771;28;94048;-35
2022/04/08 06:08:08;;;;;;;6.30;2.50;;;4.30;99.90;;;;;;4918066;28;93751;-32
2022/04/08 06:10:34;;;;;;;3.05;2.28;;;4.40;99.90;;;;;;4918384;28;93682;-33
2022/04/08 06:13:01;;;;;;;5.18;2.58;;;4.40;99.90;;;;;;4916898;28;93863;-32
2022/04/08 06:15:27;;;;;;;3.45;2.20;;;4.50;99.90;;;;;;4918316;28;94528;-33
2022/04/08 06:17:55;;;;;;;3.05;2.47;;;4.60;99.90;;;;;;4917450;28;94634;-32
2022/04/08 06:20:21;;;;;;;3.78;3.05;;;4.80;99.90;;;;;;4918376;28;93777;-33
2022/04/08 06:22:47;;;;;;;4.50;2.53;;;4.80;99.90;;;;;;4917668;28;93042;-31
2022/04/08 06:25:21;;;;;;;3.95;2.15;;;4.80;99.90;;;;;;4916768;28;95880;-33
2022/04/08 06:28:04;;;;;;;3.55;2.05;;;4.70;99.90;;;;;;4917267;28;95912;-33
2022/04/08 06:30:31;;;;;;;2.53;1.80;;;4.70;99.90;;;;;;4917562;28;94554;-35
2022/04/08 06:32:57;;;;;;;4.70;2.00;;;4.70;99.90;;;;;;4917936;28;94834;-33
2022/04/08 06:35:22;;;;;;;6.10;2.38;;;4.60;99.90;;;;;;4918000;28;94590;-32
2022/04/08 06:37:48;;;;;;;2.35;1.63;;;4.60;99.90;;;;;;4917110;28;94471;-32
2022/04/08 06:40:14;;;;;;;2.88;2.42;;;4.60;99.90;;;;;;4917855;28;92181;-33
2022/04/08 06:42:40;;;;;;;3.45;2.20;;;4.50;99.90;;;;;;4917419;28;93556;-33
2022/04/08 06:45:07;;;;;;;4.32;2.63;;;4.50;99.90;;;;;;4917627;28;94757;-34
2022/04/08 06:47:32;;;;;;;5.32;2.05;;;4.50;99.90;;;;;;4918018;28;96566;-32
2022/04/08 06:49:58;;;;;;;5.13;2.60;;;4.60;99.90;;;;;;4916685;28;95295;-33
2022/04/08 06:52:24;;;;;;;2.40;2.20;;;4.70;99.90;;;;;;4917755;28;93178;-33
2022/04/08 06:54:50;;;;;;;2.63;1.95;;;4.90;99.90;;;;;;4917612;28;94575;-33
2022/04/08 06:57:15;;;;;;;13.10;2.20;;;5.10;99.90;;;;;;4921247;28;95599;-33
2022/04/08 06:59:41;;;;;;;4.40;2.15;;;5.10;99.90;;;;;;4921459;28;92548;-34
2022/04/08 07:02:08;;;;;;;3.08;1.90;;;5.20;99.90;;;;;;4920626;28;93732;-34
2022/04/08 07:04:34;;;;;;;3.03;2.17;;;5.30;99.90;;;;;;4920711;28;94979;-33
2022/04/08 07:07:01;;;;;;;5.38;2.00;;;5.40;99.90;;;;;;4920537;28;94376;-34
2022/04/08 07:09:26;;;;;;;4.00;1.50;;;5.60;99.90;;;;;;4921233;28;95318;-37
2022/04/08 07:11:52;;;;;;;1.77;1.67;;;5.60;99.90;;;;;;4921270;28;94088;-32
2022/04/08 07:14:18;;;;;;;2.05;1.85;;;5.50;99.90;;;;;;4917823;28;95823;-33
2022/04/08 07:16:43;;;;;;;3.17;1.95;;;5.40;99.90;;;;;;4920813;28;95292;-31
2022/04/08 07:19:12;;;;;;;2.75;2.53;;;5.40;99.90;;;;;;4920117;28;94637;-32
2022/04/08 07:21:38;;;;;;;8.23;2.63;;;5.40;99.90;;;;;;4920298;28;94304;-34
2022/04/08 07:24:04;;;;;;;1.70;1.60;;;5.50;99.90;;;;;;4919937;28;94056;-37
2022/04/08 07:26:30;;;;;;;5.13;2.08;;;5.60;99.90;;;;;;4920076;28;93806;-32
2022/04/08 07:28:55;;;;;;;3.10;2.20;;;5.80;99.90;;;;;;4919948;28;93487;-34
2022/04/08 07:31:22;;;;;;;5.22;1.50;;;5.60;99.90;;;;;;4921393;28;93569;-33
2022/04/08 07:33:47;;;;;;;3.72;2.00;;;5.90;99.90;;;;;;4919412;28;93909;-32
2022/04/08 07:36:13;;;;;;;6.25;2.22;;;6.20;99.90;;;;;;4920550;28;93241;-34
2022/04/08 07:38:39;;;;;;;2.50;1.95;;;6.50;99.90;;;;;;4919865;28;95454;-36
2022/04/08 07:41:05;;;;;;;5.35;2.03;;;6.80;99.90;;;;;;4919753;28;92650;-34
2022/04/08 07:43:30;;;;;;;2.15;1.95;;;7.10;99.90;;;;;;4920764;28;95528;-32
2022/04/08 07:45:56;;;;;;;4.07;1.85;;;7.30;99.90;;;;;;4919874;28;94022;-32
2022/04/08 07:48:22;;;;;;;2.65;1.90;;;7.40;99.90;;;;;;4907375;28;94502;-36
2022/04/08 07:50:47;;;;;;;7.05;2.20;;;7.50;99.90;;;;;;4917260;28;93174;-35
2022/04/08 07:53:13;;;;;;;4.32;2.63;;;7.50;99.90;;;;;;4917971;28;94616;-35
2022/04/08 07:55:39;;;;;;;2.30;2.13;;;7.60;99.90;;;;;;4917890;28;95277;-32
2022/04/08 07:58:05;;;;;;;8.52;2.03;;;7.80;99.90;;;;;;4918332;28;94816;-34
2022/04/08 08:00:32;;;;;;;6.00;2.20;;;8.00;99.90;;;;;;4917934;28;92230;-33
2022/04/08 08:02:58;;;;;;;4.10;2.70;;;7.90;99.90;;;;;;4916858;28;95146;-33
2022/04/08 08:05:25;;;;;;;4.82;2.67;;;7.90;99.90;;;;;;4917520;28;95627;-34
2022/04/08 08:07:58;;;;;;;8.73;2.28;;;8.30;99.90;;;;;;4917289;28;94288;-35
2022/04/08 08:10:32;;;;;;;4.35;2.80;;;8.60;99.90;;;;;;4917165;28;93405;-33
2022/04/08 08:13:00;;;;;;;3.13;2.55;;;8.60;99.90;;;;;;4917701;28;94918;-35
2022/04/08 08:15:26;;;;;;;4.57;2.60;;;7.80;99.90;;;;;;4917300;28;94335;-36
2022/04/08 08:17:52;;;;;;;4.00;2.40;;;7.50;99.90;;;;;;4917555;28;94244;-35
2022/04/08 08:20:20;;;;;;;5.57;3.08;;;7.30;99.90;;;;;;4918119;28;93397;-37
2022/04/08 08:22:46;;;;;;;5.77;2.73;;;7.30;99.90;;;;;;4917377;28;94695;-34
2022/04/08 08:25:12;;;;;;;6.15;3.35;;;7.60;99.90;;;;;;4916962;28;94740;-33
2022/04/08 08:27:38;;;;;;;6.80;3.40;;;7.80;99.90;;;;;;4917594;28;94314;-34
2022/04/08 08:30:06;;;;;;;8.02;2.90;;;8.00;99.90;;;;;;4917426;28;92973;-33
2022/04/08 08:32:32;;;;;;;5.43;3.05;;;8.50;99.90;;;;;;4899562;28;97118;-33
2022/04/08 08:34:58;;;;;;;7.18;2.60;;;8.20;99.90;;;;;;4917123;28;93547;-34
2022/04/08 08:37:24;;;;;;;5.10;2.80;;;8.60;99.90;;;;;;4917728;28;94196;-35
2022/04/08 08:39:49;;;;;;;7.15;3.50;;;8.60;99.90;;;;;;4917003;28;95069;-36
2022/04/08 08:42:16;;;;;;;3.35;2.88;;;8.80;99.90;;;;;;4916847;28;94636;-32
2022/04/08 08:44:42;;;;;;;4.13;2.15;;;8.90;99.90;;;;;;4916737;28;93452;-35
2022/04/08 08:47:16;;;;;;;6.38;3.15;;;9.10;99.90;;;;;;4917803;28;93133;-33
2022/04/08 08:49:47;;;;;;;7.55;3.17;;;9.10;99.90;;;;;;4916799;28;93070;-32
2022/04/08 08:52:14;;;;;;;6.07;2.45;;;8.80;99.90;;;;;;4917231;28;95942;-34
2022/04/08 08:54:41;;;;;;;4.68;3.13;;;9.00;99.90;;;;;;4916638;28;95518;-35
2022/04/08 08:57:09;;;;;;;8.32;2.75;;;9.10;99.90;;;;;;4917554;28;94135;-34
2022/04/08 08:59:36;;;;;;;5.22;2.72;;;9.20;99.90;;;;;;4917545;28;92168;-33
2022/04/08 09:02:03;;;;;;;4.47;2.58;;;9.10;99.90;;;;;;4916840;28;94832;-35
2022/04/08 09:04:30;;;;;;;6.70;2.72;;;9.20;99.90;;;;;;4917000;28;94889;-33
2022/04/08 09:06:56;;;;;;;5.13;2.63;;;9.30;99.90;;;;;;4916299;28;93402;-35
2022/04/08 09:09:31;;;;;;;6.10;3.53;;;9.30;99.90;;;;;;4917188;28;93889;-34
2022/04/08 09:12:09;;;;;;;5.93;2.47;;;9.60;99.90;;;;;;4916227;28;95449;-34
2022/04/08 09:14:35;;;;;;;;;;;9.60;99.90;;;;;;4917876;28;94341;-33
2022/04/08 09:17:02;;;;;;;3.08;2.58;;;9.70;99.90;;;;;;4918541;28;94874;-32
2022/04/08 09:19:34;;;;;;;5.25;2.90;;;9.70;99.90;;;;;;4914988;28;93195;-34
2022/04/08 09:22:00;;;;;;;7.75;3.17;;;9.90;99.90;;;;;;4917037;28;94846;-34
2022/04/08 09:24:29;;;;;;;6.68;3.22;;;10.00;99.90;;;;;;4915959;28;95289;-33
2022/04/08 09:26:56;;;;;;;5.43;2.25;;;10.00;99.90;;;;;;4916665;28;92855;-33
2022/04/08 09:29:22;;;;;;;9.00;2.85;;;10.40;99.90;;;;;;4917111;28;93845;-34
2022/04/08 09:31:49;;;;;;;9.27;3.17;;;10.30;99.90;;;;;;4916362;28;96217;-34
2022/04/08 09:34:16;;;;;;;4.60;3.42;;;10.40;99.90;;;;;;4931364;28;94548;-36
2022/04/08 09:36:42;;;;;;;7.80;2.63;;;10.80;99.90;;;;;;4916461;28;93833;-37
2022/04/08 09:39:10;;;;;;;7.55;3.70;;;10.50;99.90;;;;;;4917051;28;94529;-35
2022/04/08 09:41:49;;;;;;;6.05;2.53;;;10.20;99.90;;;;;;4915665;28;97153;-34
2022/04/08 09:44:24;;;;;;;6.57;3.40;;;9.70;99.90;;;;;;4916272;28;96151;-34
2022/04/08 09:46:50;;;;;;;13.65;3.92;;;9.50;99.90;;;;;;4916344;28;94045;-34
2022/04/08 09:49:15;;;;;;;5.90;3.50;;;9.50;99.90;;;;;;4916868;28;93187;-34
2022/04/08 09:51:42;;;;;;;12.23;3.70;;;9.90;99.90;;;;;;4916033;28;94907;-34
2022/04/08 09:54:10;;;;;;;9.30;3.63;;;10.00;99.90;;;;;;4916486;28;94547;-36
2022/04/08 09:56:37;;;;;;;9.80;3.35;;;10.30;99.90;;;;;;4931219;28;94512;-33
2022/04/08 09:59:35;;;;;;;9.07;3.42;;;10.20;99.90;;;;;;4916064;28;92127;-35
2022/04/08 10:02:03;;;;;;;5.65;4.10;;;9.80;99.90;;;;;;4882888;28;94851;-34
2022/04/08 10:04:29;;;;;;;7.87;3.70;;;9.30;99.90;;;;;;4916453;28;95025;-32
2022/04/08 10:06:55;;;;;;;13.45;4.35;;;9.10;99.90;;;;;;4915339;28;93180;-35
2022/04/08 10:09:24;;;;;;;13.43;4.93;;;8.90;99.90;;;;;;4914022;28;93962;-35
2022/04/08 10:12:12;;;;;;;17.50;5.50;;;8.80;99.90;;;;;;4915026;28;94621;-32
2022/04/08 10:14:51;;;;;;;9.07;4.68;;;8.70;99.90;;;;;;4915141;28;94384;-35
2022/04/08 10:17:17;;;;;;;10.07;4.57;;;8.50;99.90;;;;;;4915883;28;93330;-35
2022/04/08 10:19:43;;;;;;;19.23;5.82;;;8.30;99.90;;;;;;4915224;28;93790;-33
2022/04/08 10:22:16;;;;;;;13.75;4.43;;;8.30;99.90;;;;;;4915141;28;94836;-32
2022/04/08 10:24:52;;;;;;;14.43;5.03;;;8.70;99.90;;;;;;4914992;28;94633;-34
2022/04/08 10:27:28;;;;;;;15.93;5.57;;;9.10;99.90;;;;;;4915565;28;93308;-36
2022/04/08 10:29:55;;;;;;;12.52;4.00;;;9.60;99.90;;;;;;4915429;28;92721;-36
2022/04/08 10:32:21;;;;;;;9.38;4.40;;;9.70;99.90;;;;;;4917703;28;95801;-33
2022/04/08 10:34:47;;;;;;;6.20;4.10;;;9.90;99.90;;;;;;4918859;28;95822;-34
2022/04/08 10:37:17;;;;;;;8.48;3.92;;;9.80;99.90;;;;;;4918789;28;94378;-33
2022/04/08 10:39:59;;;;;;;8.98;3.88;;;9.90;99.90;;;;;;4918574;28;93120;-35
2022/04/08 10:42:25;;;;;;;11.82;4.03;;;9.80;99.90;;;;;;4919533;28;94943;-31
2022/04/08 10:44:50;;;;;;;14.52;4.28;;;10.10;99.90;;;;;;4918735;28;94828;-31
2022/04/08 10:47:20;;;;;;;10.15;3.75;;;10.00;99.90;;;;;;4918963;28;93498;-34
2022/04/08 10:49:52;;;;;;;12.27;4.22;;;9.90;99.90;;;;;;4919104;28;93562;-36
2022/04/08 10:52:22;;;;;;;11.40;4.78;;;9.90;99.90;;;;;;4918383;28;94863;-34
2022/04/08 10:54:49;;;;;;;10.38;4.47;;;9.80;99.90;;;;;;4917789;28;94389;-33
2022/04/08 10:57:26;;;;;;;7.57;4.00;;;9.60;99.90;;;;;;4918519;28;93973;-33
2022/04/08 10:59:52;;;;;;;5.97;3.42;;;9.20;99.90;;;;;;4918445;28;94079;-33
2022/04/08 11:02:19;;;;;;;8.35;3.65;;;9.10;99.90;;;;;;4917896;28;94944;-36
2022/04/08 11:04:44;;;;;;;7.05;3.80;;;8.90;99.90;;;;;;4918508;28;94461;-37
2022/04/08 11:07:11;;;;;;;8.90;3.67;;;8.80;99.90;;;;;;4918124;28;94609;-33
2022/04/08 11:09:36;;;;;;;4.18;3.45;;;8.70;99.90;;;;;;4917298;28;94066;-33
2022/04/08 11:12:02;;;;;;;4.55;3.17;;;8.60;99.90;;;;;;4918398;28;94840;-34
2022/04/08 11:14:31;;;;;;;3.35;2.15;;;8.30;99.90;;;;;;4918101;28;94673;-33
2022/04/08 11:16:57;;;;;;;3.35;2.30;;;7.50;99.90;;;;;;4918727;28;94171;-36
2022/04/08 11:19:23;;;;;;;4.63;2.35;;;7.60;99.90;;;;;;4917542;28;93496;-32
2022/04/08 11:21:48;;;;;;;2.88;2.53;;;7.30;99.90;;;;;;4916924;28;96137;-35
2022/04/08 11:24:16;;;;;;;5.13;2.90;;;7.20;99.90;;;;;;4917848;28;95886;-36
2022/04/08 11:26:53;;;;;;;9.23;3.17;;;7.10;99.90;;;;;;4918753;28;93751;-33
2022/04/08 11:29:23;;;;;;;7.60;2.83;;;7.20;99.90;;;;;;4918507;28;92278;-33
2022/04/08 11:31:52;;;;;;;5.03;3.13;;;7.10;99.90;;;;;;4917853;28;94526;-36
2022/04/08 11:34:19;;;;;;;5.00;2.92;;;7.00;99.90;;;;;;4918229;28;94380;-36
2022/04/08 11:36:45;;;;;;;7.13;3.38;;;7.20;99.90;;;;;;4918231;28;94775;-33
2022/04/08 11:39:19;;;;;;;10.25;3.58;;;7.40;99.90;;;;;;4918252;28;93310;-35
2022/04/08 11:41:54;;;;;;;5.55;3.25;;;7.70;99.90;;;;;;4916991;28;95366;-36
2022/04/08 11:44:21;;;;;;;4.90;3.20;;;7.80;99.90;;;;;;4917885;28;94651;-33
2022/04/08 11:46:46;;;;;;;8.13;2.92;;;7.90;99.90;;;;;;4932848;28;95420;-33
2022/04/08 11:49:12;;;;;;;6.20;3.15;;;8.10;99.90;;;;;;4917601;28;93209;-33
2022/04/08 11:51:38;;;;;;;7.00;2.80;;;8.30;99.90;;;;;;4918014;28;95545;-33
2022/04/08 11:54:04;;;;;;;3.95;2.17;;;8.60;99.90;;;;;;4917538;28;94530;-34
2022/04/08 11:56:30;;;;;;;8.55;3.55;;;8.90;99.90;;;;;;4917939;28;92501;-35
2022/04/08 11:58:59;;;;;;;5.68;2.97;;;8.90;99.90;;;;;;4917705;28;93638;-34
2022/04/08 12:01:24;;;;;;;;;;;9.20;99.90;;;;;;4918586;28;96421;-32
2022/04/08 12:03:52;;;;;;;8.38;2.42;;;9.50;99.90;;;;;;4933731;28;93714;-34
2022/04/08 12:06:18;;;;;;;6.20;2.50;;;9.50;99.90;;;;;;4918509;28;92697;-35
2022/04/08 12:08:46;;;;;;;3.53;2.40;;;9.70;99.90;;;;;;4916847;28;92959;-35
2022/04/08 12:11:11;;;;;;;10.82;3.30;;;9.70;99.90;;;;;;4916584;28;95867;-35
2022/04/08 12:13:40;;;;;;;6.50;2.55;;;9.80;99.90;;;;;;4917389;28;96369;-36
2022/04/08 12:16:10;;;;;;;3.30;2.38;;;10.10;99.90;;;;;;4918478;28;93870;-33
2022/04/08 12:18:45;;;;;;;3.88;2.17;;;10.30;99.90;;;;;;4915464;28;94960;-33
2022/04/08 12:21:10;;;;;;;6.15;3.25;;;10.40;99.90;;;;;;4916796;28;96295;-33
2022/04/08 12:23:40;;;;;;;10.13;3.53;;;10.80;99.90;;;;;;4916566;28;99191;-34
2022/04/08 12:26:08;;;;;;;10.00;4.07;;;10.80;99.90;;;;;;5021419;22;93272;-34
2022/04/08 12:28:35;;;;;;;8.30;3.17;;;10.60;99.90;;;;;;4995663;28;91699;-35
2022/04/08 12:31:15;;;;;;;8.82;2.88;;;10.70;99.90;;;;;;4995201;28;96228;-34
2022/04/08 12:33:41;;;;;;;8.50;2.25;;;10.70;99.90;;;;;;4995192;28;94226;-32
2022/04/08 12:36:09;;;;;;;4.80;2.38;;;10.60;99.90;;;;;;4995117;28;94103;-35
2022/04/08 12:38:36;;;;;;;6.03;2.35;;;10.60;99.90;;;;;;4995043;28;93457;-34
2022/04/08 12:41:01;;;;;;;4.25;2.25;;;10.00;99.90;;;;;;4996277;28;94685;-36
2022/04/08 12:43:27;;;;;;;6.25;2.40;;;9.80;99.90;;;;;;4995129;28;94521;-32
2022/04/08 12:45:53;;;;;;;3.47;1.95;;;9.70;99.90;;;;;;4995840;28;93861;-34
2022/04/08 12:48:18;;;;;;;9.30;2.33;;;9.50;99.90;;;;;;4995549;28;94117;-34
2022/04/08 12:50:44;;;;;;;3.90;2.75;;;9.40;99.90;;;;;;4994578;28;94377;-37
2022/04/08 12:53:09;;;;;;;4.40;2.10;;;9.10;99.90;;;;;;4996008;28;94652;-34
2022/04/08 12:55:35;;;;;;;3.22;2.03;;;9.10;99.90;;;;;;4993408;28;94152;-33
2022/04/08 12:58:00;;;;;;;6.57;2.28;;;8.90;99.90;;;;;;4994772;28;94031;-33